sensor_id;sensor_type;location;lat;lon;timestamp;temperature;humidity
17938;DHT22;16051;53.024;8.630;2022-12-20T00:03:14;7.00;99.90
17938;DHT22;16051;53.024;8.630;2022-12-20T00:07:16;7.00;99.90
17938;DHT22;16051;53.024;8.630;2022-12-20T00:11:27;7.00;99.90
17938;DHT22;16051;53.024;8.630;2022-12-20T00:15:31;7.10;99.90
17938;DHT22;16051;53.024;8.630;2022-12-20T00:19:34;7.10;99.90
17938;DHT22;16051;53.024;8.630;2022-12-20T00:23:37;7.10;99.90
17938;DHT22;16051;53.024;8.630;2022-12-20T00:27:39;7.10;99.90
17938;DHT22;16051;53.024;8.630;2022-12-20T00:31:43;7.20;99.90
17938;DHT22;16051;53.024;8.630;2022-12-20T00:35:45;7.20;99.90
17938;DHT22;16051;53.024;8.630;2022-12-20T00:39:47;7.20;99.90
17938;DHT22;16051;53.024;8.630;2022-12-20T00:43:49;7.30;99.90
17938;DHT22;16051;53.024;8.630;2022-12-20T00:47:53;7.30;99.90
17938;DHT22;16051;53.024;8.630;2022-12-20T00:51:55;7.30;99.90
17938;DHT22;16051;53.024;8.630;2022-12-20T00:55:58;7.40;99.90
17938;DHT22;16051;53.024;8.630;2022-12-20T01:00:00;7.40;99.90
17938;DHT22;16051;53.024;8.630;2022-12-20T01:04:14;7.40;99.90
17938;DHT22;16051;53.024;8.630;2022-12-20T01:08:16;7.50;99.90
17938;DHT22;16051;53.024;8.630;2022-12-20T01:12:18;7.60;99.90
17938;DHT22;16051;53.024;8.630;2022-12-20T01:16:23;7.60;99.90
17938;DHT22;16051;53.024;8.630;2022-12-20T01:20:29;7.70;99.90
17938;DHT22;16051;53.024;8.630;2022-12-20T01:24:31;7.70;99.90
17938;DHT22;16051;53.024;8.630;2022-12-20T01:28:33;7.70;99.90
17938;DHT22;16051;53.024;8.630;2022-12-20T01:32:36;7.70;99.90
17938;DHT22;16051;53.024;8.630;2022-12-20T01:36:39;7.80;99.90
17938;DHT22;16051;53.024;8.630;2022-12-20T01:40:41;7.80;99.90
17938;DHT22;16051;53.024;8.630;2022-12-20T01:44:56;7.80;99.90
17938;DHT22;16051;53.024;8.630;2022-12-20T01:49:03;7.80;99.90
17938;DHT22;16051;53.024;8.630;2022-12-20T01:53:10;7.90;99.90
17938;DHT22;16051;53.024;8.630;2022-12-20T01:57:15;7.90;99.90
17938;DHT22;16051;53.024;8.630;2022-12-20T02:01:22;7.90;99.90
17938;DHT22;16051;53.024;8.630;2022-12-20T02:05:24;7.90;99.90
17938;DHT22;16051;53.024;8.630;2022-12-20T02:09:31;7.90;99.90
17938;DHT22;16051;53.024;8.630;2022-12-20T02:13:46;7.90;99.90
17938;DHT22;16051;53.024;8.630;2022-12-20T02:18:07;7.90;99.90
17938;DHT22;16051;53.024;8.630;2022-12-20T02:22:24;7.90;99.90
17938;DHT22;16051;53.024;8.630;2022-12-20T02:31:44;7.90;99.90
17938;DHT22;16051;53.024;8.630;2022-12-20T02:35:50;7.90;99.90
17938;DHT22;16051;53.024;8.630;2022-12-20T02:39:52;7.90;99.90
17938;DHT22;16051;53.024;8.630;2022-12-20T02:43:57;7.90;99.90
17938;DHT22;16051;53.024;8.630;2022-12-20T02:48:21;7.90;99.90
17938;DHT22;16051;53.024;8.630;2022-12-20T02:52:27;7.90;99.90
17938;DHT22;16051;53.024;8.630;2022-12-20T02:56:34;8.00;99.90
17938;DHT22;16051;53.024;8.630;2022-12-20T03:00:41;8.00;99.90
17938;DHT22;16051;53.024;8.630;2022-12-20T03:04:48;8.00;99.90
17938;DHT22;16051;53.024;8.630;2022-12-20T03:09:02;8.00;99.90
17938;DHT22;16051;53.024;8.630;2022-12-20T03:13:04;8.00;99.90
17938;DHT22;16051;53.024;8.630;2022-12-20T03:17:06;8.00;99.90
17938;DHT22;16051;53.024;8.630;2022-12-20T03:21:10;8.00;99.90
17938;DHT22;16051;53.024;8.630;2022-12-20T03:25:14;8.10;99.90
17938;DHT22;16051;53.024;8.630;2022-12-20T03:29:16;8.10;99.90
17938;DHT22;16051;53.024;8.630;2022-12-20T03:33:18;8.10;99.90
17938;DHT22;16051;53.024;8.630;2022-12-20T03:37:22;8.10;99.90
17938;DHT22;16051;53.024;8.630;2022-12-20T03:41:24;8.10;99.90
17938;DHT22;16051;53.024;8.630;2022-12-20T03:45:27;8.10;99.90
17938;DHT22;16051;53.024;8.630;2022-12-20T03:49:30;8.10;99.90
17938;DHT22;16051;53.024;8.630;2022-12-20T03:53:34;8.20;99.90
17938;DHT22;16051;53.024;8.630;2022-12-20T03:57:38;8.20;99.90
17938;DHT22;16051;53.024;8.630;2022-12-20T04:01:41;8.20;99.90
17938;DHT22;16051;53.024;8.630;2022-12-20T04:05:43;8.20;99.90
17938;DHT22;16051;53.024;8.630;2022-12-20T04:09:46;8.20;99.90
17938;DHT22;16051;53.024;8.630;2022-12-20T04:13:50;8.20;99.90
17938;DHT22;16051;53.024;8.630;2022-12-20T04:17:53;8.30;99.90
17938;DHT22;16051;53.024;8.630;2022-12-20T04:21:55;8.30;99.90
17938;DHT22;16051;53.024;8.630;2022-12-20T04:26:09;8.30;99.90
17938;DHT22;16051;53.024;8.630;2022-12-20T04:30:13;8.30;99.90
17938;DHT22;16051;53.024;8.630;2022-12-20T04:34:15;8.30;99.90
17938;DHT22;16051;53.024;8.630;2022-12-20T04:38:17;8.40;99.90
17938;DHT22;16051;53.024;8.630;2022-12-20T04:42:21;8.30;99.90
17938;DHT22;16051;53.024;8.630;2022-12-20T04:46:33;8.40;99.90
17938;DHT22;16051;53.024;8.630;2022-12-20T04:50:35;8.40;99.90
17938;DHT22;16051;53.024;8.630;2022-12-20T04:54:37;8.40;99.90
17938;DHT22;16051;53.024;8.630;2022-12-20T04:58:44;8.40;99.90
17938;DHT22;16051;53.024;8.630;2022-12-20T05:02:56;8.40;99.90
17938;DHT22;16051;53.024;8.630;2022-12-20T05:06:58;8.40;99.90
17938;DHT22;16051;53.024;8.630;2022-12-20T05:11:00;8.40;99.90
17938;DHT22;16051;53.024;8.630;2022-12-20T05:15:04;8.40;99.90
17938;DHT22;16051;53.024;8.630;2022-12-20T05:19:07;8.50;99.90
17938;DHT22;16051;53.024;8.630;2022-12-20T05:23:09;8.50;99.90
17938;DHT22;16051;53.024;8.630;2022-12-20T05:27:29;8.50;99.90
17938;DHT22;16051;53.024;8.630;2022-12-20T05:31:33;8.50;99.90
17938;DHT22;16051;53.024;8.630;2022-12-20T05:35:35;8.50;99.90
17938;DHT22;16051;53.024;8.630;2022-12-20T05:39:38;8.50;99.90
17938;DHT22;16051;53.024;8.630;2022-12-20T05:43:40;8.60;99.90
17938;DHT22;16051;53.024;8.630;2022-12-20T05:47:44;8.60;99.90
17938;DHT22;16051;53.024;8.630;2022-12-20T05:51:46;8.60;99.90
17938;DHT22;16051;53.024;8.630;2022-12-20T05:55:50;8.70;99.90
17938;DHT22;16051;53.024;8.630;2022-12-20T06:00:02;8.70;99.90
17938;DHT22;16051;53.024;8.630;2022-12-20T06:04:17;8.70;99.90
17938;DHT22;16051;53.024;8.630;2022-12-20T06:08:23;8.70;99.90
17938;DHT22;16051;53.024;8.630;2022-12-20T06:12:25;8.70;99.90
17938;DHT22;16051;53.024;8.630;2022-12-20T06:16:27;8.70;99.90
17938;DHT22;16051;53.024;8.630;2022-12-20T06:20:33;8.70;99.90
17938;DHT22;16051;53.024;8.630;2022-12-20T06:24:36;8.70;99.90
17938;DHT22;16051;53.024;8.630;2022-12-20T06:28:39;8.70;99.90
17938;DHT22;16051;53.024;8.630;2022-12-20T06:32:52;8.80;99.90
17938;DHT22;16051;53.024;8.630;2022-12-20T06:36:56;8.80;99.90
17938;DHT22;16051;53.024;8.630;2022-12-20T06:40:58;9.00;99.90
17938;DHT22;16051;53.024;8.630;2022-12-20T06:45:00;9.60;99.90
17938;DHT22;16051;53.024;8.630;2022-12-20T06:49:10;9.40;99.90
17938;DHT22;16051;53.024;8.630;2022-12-20T06:53:14;9.10;99.90
17938;DHT22;16051;53.024;8.630;2022-12-20T06:57:16;9.00;99.90
17938;DHT22;16051;53.024;8.630;2022-12-20T07:01:18;8.90;99.90
17938;DHT22;16051;53.024;8.630;2022-12-20T07:05:31;8.90;99.90
17938;DHT22;16051;53.024;8.630;2022-12-20T07:09:34;8.80;99.90
17938;DHT22;16051;53.024;8.630;2022-12-20T07:13:37;8.80;99.90
17938;DHT22;16051;53.024;8.630;2022-12-20T07:17:42;8.80;99.90
17938;DHT22;16051;53.024;8.630;2022-12-20T07:21:46;8.80;99.90
17938;DHT22;16051;53.024;8.630;2022-12-20T07:25:59;8.80;99.90
17938;DHT22;16051;53.024;8.630;2022-12-20T07:30:06;8.80;99.90
17938;DHT22;16051;53.024;8.630;2022-12-20T07:34:09;8.80;99.90
17938;DHT22;16051;53.024;8.630;2022-12-20T07:38:11;8.80;99.90
17938;DHT22;16051;53.024;8.630;2022-12-20T07:42:15;8.80;99.90
17938;DHT22;16051;53.024;8.630;2022-12-20T07:46:18;8.90;99.90
17938;DHT22;16051;53.024;8.630;2022-12-20T07:50:21;8.90;99.90
17938;DHT22;16051;53.024;8.630;2022-12-20T07:54:26;8.90;99.90
17938;DHT22;16051;53.024;8.630;2022-12-20T07:58:32;8.90;99.90
17938;DHT22;16051;53.024;8.630;2022-12-20T08:02:38;9.00;99.90
17938;DHT22;16051;53.024;8.630;2022-12-20T08:06:49;9.00;99.90
17938;DHT22;16051;53.024;8.630;2022-12-20T08:11:03;9.00;99.90
17938;DHT22;16051;53.024;8.630;2022-12-20T08:15:10;9.10;99.90
17938;DHT22;16051;53.024;8.630;2022-12-20T08:19:12;9.20;99.90
17938;DHT22;16051;53.024;8.630;2022-12-20T08:23:14;9.30;99.90
17938;DHT22;16051;53.024;8.630;2022-12-20T08:27:18;9.30;99.90
17938;DHT22;16051;53.024;8.630;2022-12-20T08:31:21;9.40;99.90
17938;DHT22;16051;53.024;8.630;2022-12-20T08:35:24;9.40;99.90
17938;DHT22;16051;53.024;8.630;2022-12-20T08:39:26;9.50;99.90
17938;DHT22;16051;53.024;8.630;2022-12-20T08:43:28;9.50;99.90
17938;DHT22;16051;53.024;8.630;2022-12-20T08:47:32;9.60;99.90
17938;DHT22;16051;53.024;8.630;2022-12-20T08:51:34;10.20;99.90
17938;DHT22;16051;53.024;8.630;2022-12-20T08:55:36;9.90;99.90
17938;DHT22;16051;53.024;8.630;2022-12-20T08:59:38;9.80;99.90
17938;DHT22;16051;53.024;8.630;2022-12-20T09:03:42;9.90;99.90
17938;DHT22;16051;53.024;8.630;2022-12-20T09:07:45;9.90;99.90
17938;DHT22;16051;53.024;8.630;2022-12-20T09:11:47;10.00;99.90
17938;DHT22;16051;53.024;8.630;2022-12-20T09:15:49;10.10;99.90
17938;DHT22;16051;53.024;8.630;2022-12-20T09:19:53;10.20;99.90
17938;DHT22;16051;53.024;8.630;2022-12-20T09:23:56;10.30;99.90
17938;DHT22;16051;53.024;8.630;2022-12-20T09:28:08;10.30;99.90
17938;DHT22;16051;53.024;8.630;2022-12-20T09:32:10;10.30;99.90
17938;DHT22;16051;53.024;8.630;2022-12-20T09:36:16;10.40;99.90
17938;DHT22;16051;53.024;8.630;2022-12-20T09:40:21;10.40;99.90
17938;DHT22;16051;53.024;8.630;2022-12-20T09:44:28;10.40;99.90
17938;DHT22;16051;53.024;8.630;2022-12-20T09:48:37;10.40;99.90
17938;DHT22;16051;53.024;8.630;2022-12-20T09:52:50;10.50;99.90
17938;DHT22;16051;53.024;8.630;2022-12-20T09:57:06;10.50;99.90
17938;DHT22;16051;53.024;8.630;2022-12-20T10:01:19;10.50;99.90
17938;DHT22;16051;53.024;8.630;2022-12-20T10:05:29;10.60;99.90
17938;DHT22;16051;53.024;8.630;2022-12-20T10:10:13;10.60;99.90
17938;DHT22;16051;53.024;8.630;2022-12-20T10:14:37;10.70;99.90
17938;DHT22;16051;53.024;8.630;2022-12-20T10:18:59;10.80;99.90
17938;DHT22;16051;53.024;8.630;2022-12-20T10:23:18;10.80;99.90
17938;DHT22;16051;53.024;8.630;2022-12-20T10:27:27;10.90;99.90
17938;DHT22;16051;53.024;8.630;2022-12-20T10:31:33;11.00;99.90
17938;DHT22;16051;53.024;8.630;2022-12-20T10:35:37;11.00;99.90
17938;DHT22;16051;53.024;8.630;2022-12-20T10:39:41;10.90;99.90
17938;DHT22;16051;53.024;8.630;2022-12-20T10:44:03;11.00;99.90
17938;DHT22;16051;53.024;8.630;2022-12-20T10:48:28;11.10;99.90
17938;DHT22;16051;53.024;8.630;2022-12-20T10:52:31;11.20;99.90
17938;DHT22;16051;53.024;8.630;2022-12-20T10:56:34;11.50;99.90
17938;DHT22;16051;53.024;8.630;2022-12-20T11:00:38;11.40;99.90
17938;DHT22;16051;53.024;8.630;2022-12-20T11:04:41;11.30;99.90
17938;DHT22;16051;53.024;8.630;2022-12-20T11:08:43;11.50;99.90
17938;DHT22;16051;53.024;8.630;2022-12-20T11:12:52;11.40;99.90
17938;DHT22;16051;53.024;8.630;2022-12-20T11:16:57;11.40;99.90
17938;DHT22;16051;53.024;8.630;2022-12-20T11:21:15;11.20;99.90
17938;DHT22;16051;53.024;8.630;2022-12-20T11:25:37;11.10;99.90
17938;DHT22;16051;53.024;8.630;2022-12-20T11:30:08;11.10;99.90
17938;DHT22;16051;53.024;8.630;2022-12-20T11:34:28;11.10;99.90
17938;DHT22;16051;53.024;8.630;2022-12-20T11:38:42;10.90;99.90
17938;DHT22;16051;53.024;8.630;2022-12-20T11:43:16;10.90;99.90
17938;DHT22;16051;53.024;8.630;2022-12-20T11:47:48;11.00;99.90
17938;DHT22;16051;53.024;8.630;2022-12-20T11:52:13;10.90;99.90
17938;DHT22;16051;53.024;8.630;2022-12-20T11:56:33;10.90;99.90
17938;DHT22;16051;53.024;8.630;2022-12-20T12:00:38;10.80;99.90
17938;DHT22;16051;53.024;8.630;2022-12-20T12:04:53;10.80;99.90
17938;DHT22;16051;53.024;8.630;2022-12-20T12:09:13;10.80;99.90
17938;DHT22;16051;53.024;8.630;2022-12-20T12:13:35;10.90;99.90
17938;DHT22;16051;53.024;8.630;2022-12-20T12:17:47;11.00;99.90
17938;DHT22;16051;53.024;8.630;2022-12-20T12:22:00;11.00;99.90
17938;DHT22;16051;53.024;8.630;2022-12-20T12:26:12;11.00;99.90
17938;DHT22;16051;53.024;8.630;2022-12-20T12:30:21;11.00;99.90
17938;DHT22;16051;53.024;8.630;2022-12-20T12:34:33;11.00;99.90
17938;DHT22;16051;53.024;8.630;2022-12-20T12:43:47;10.90;99.90
17938;DHT22;16051;53.024;8.630;2022-12-20T12:47:53;10.80;99.90
17938;DHT22;16051;53.024;8.630;2022-12-20T12:52:02;10.80;99.90
17938;DHT22;16051;53.024;8.630;2022-12-20T12:56:38;10.80;99.90
17938;DHT22;16051;53.024;8.630;2022-12-20T13:00:51;10.90;99.90
17938;DHT22;16051;53.024;8.630;2022-12-20T13:04:58;10.90;99.90
17938;DHT22;16051;53.024;8.630;2022-12-20T13:09:18;10.80;99.90
17938;DHT22;16051;53.024;8.630;2022-12-20T13:13:22;10.80;99.90
17938;DHT22;16051;53.024;8.630;2022-12-20T13:17:48;10.70;99.90
17938;DHT22;16051;53.024;8.630;2022-12-20T13:21:54;10.60;99.90
17938;DHT22;16051;53.024;8.630;2022-12-20T13:40:37;10.50;99.90
17938;DHT22;16051;53.024;8.630;2022-12-20T13:44:49;10.50;99.90
17938;DHT22;16051;53.024;8.630;2022-12-20T13:48:58;10.50;99.90
17938;DHT22;16051;53.024;8.630;2022-12-20T13:53:36;10.50;99.90
17938;DHT22;16051;53.024;8.630;2022-12-20T13:57:43;10.60;99.90
17938;DHT22;16051;53.024;8.630;2022-12-20T14:01:53;10.60;99.90
17938;DHT22;16051;53.024;8.630;2022-12-20T14:05:58;10.60;99.90
17938;DHT22;16051;53.024;8.630;2022-12-20T14:10:27;10.60;99.90
17938;DHT22;16051;53.024;8.630;2022-12-20T14:14:36;10.60;99.90
17938;DHT22;16051;53.024;8.630;2022-12-20T14:19:00;10.50;99.90
17938;DHT22;16051;53.024;8.630;2022-12-20T14:23:09;10.50;99.90
17938;DHT22;16051;53.024;8.630;2022-12-20T14:32:36;10.40;99.90
17938;DHT22;16051;53.024;8.630;2022-12-20T14:36:44;10.50;99.90
17938;DHT22;16051;53.024;8.630;2022-12-20T14:40:48;10.40;99.90
17938;DHT22;16051;53.024;8.630;2022-12-20T14:45:20;10.40;99.90
17938;DHT22;16051;53.024;8.630;2022-12-20T14:49:36;10.30;99.90
17938;DHT22;16051;53.024;8.630;2022-12-20T14:53:48;10.30;99.90
17938;DHT22;16051;53.024;8.630;2022-12-20T14:57:56;10.30;99.90
17938;DHT22;16051;53.024;8.630;2022-12-20T15:02:32;10.20;99.90
17938;DHT22;16051;53.024;8.630;2022-12-20T15:06:41;10.30;99.90
17938;DHT22;16051;53.024;8.630;2022-12-20T15:11:02;10.30;99.90
17938;DHT22;16051;53.024;8.630;2022-12-20T15:15:20;10.30;99.90
17938;DHT22;16051;53.024;8.630;2022-12-20T15:19:28;10.20;99.90
17938;DHT22;16051;53.024;8.630;2022-12-20T15:23:34;10.20;99.90
17938;DHT22;16051;53.024;8.630;2022-12-20T15:27:36;10.30;99.90
17938;DHT22;16051;53.024;8.630;2022-12-20T15:31:38;10.30;99.90
17938;DHT22;16051;53.024;8.630;2022-12-20T15:35:41;10.30;99.90
17938;DHT22;16051;53.024;8.630;2022-12-20T15:39:44;10.30;99.90
17938;DHT22;16051;53.024;8.630;2022-12-20T15:43:49;10.30;99.90
17938;DHT22;16051;53.024;8.630;2022-12-20T15:47:54;10.30;99.90
17938;DHT22;16051;53.024;8.630;2022-12-20T15:51:57;10.30;99.90
17938;DHT22;16051;53.024;8.630;2022-12-20T15:56:01;10.30;99.90
17938;DHT22;16051;53.024;8.630;2022-12-20T16:00:03;10.30;99.90
17938;DHT22;16051;53.024;8.630;2022-12-20T16:04:09;10.40;99.90
17938;DHT22;16051;53.024;8.630;2022-12-20T16:08:15;10.30;99.90
17938;DHT22;16051;53.024;8.630;2022-12-20T16:12:27;10.30;99.90
17938;DHT22;16051;53.024;8.630;2022-12-20T16:16:34;10.30;99.90
17938;DHT22;16051;53.024;8.630;2022-12-20T16:20:37;10.30;99.90
17938;DHT22;16051;53.024;8.630;2022-12-20T16:24:39;10.30;99.90
17938;DHT22;16051;53.024;8.630;2022-12-20T16:28:45;10.30;99.90
17938;DHT22;16051;53.024;8.630;2022-12-20T16:32:50;10.30;99.90
17938;DHT22;16051;53.024;8.630;2022-12-20T16:36:52;10.30;99.90
17938;DHT22;16051;53.024;8.630;2022-12-20T16:40:55;10.30;99.90
17938;DHT22;16051;53.024;8.630;2022-12-20T16:45:12;10.30;99.90
17938;DHT22;16051;53.024;8.630;2022-12-20T16:49:18;10.30;99.90
17938;DHT22;16051;53.024;8.630;2022-12-20T16:53:20;10.30;99.90
17938;DHT22;16051;53.024;8.630;2022-12-20T16:57:22;10.30;99.90
17938;DHT22;16051;53.024;8.630;2022-12-20T17:01:29;10.30;99.90
17938;DHT22;16051;53.024;8.630;2022-12-20T17:05:34;10.30;99.90
17938;DHT22;16051;53.024;8.630;2022-12-20T17:09:39;10.30;99.90
17938;DHT22;16051;53.024;8.630;2022-12-20T17:13:41;10.30;99.90
17938;DHT22;16051;53.024;8.630;2022-12-20T17:17:52;10.30;99.90
17938;DHT22;16051;53.024;8.630;2022-12-20T17:21:55;10.30;99.90
17938;DHT22;16051;53.024;8.630;2022-12-20T17:25:57;10.30;99.90
17938;DHT22;16051;53.024;8.630;2022-12-20T17:29:59;10.30;99.90
17938;DHT22;16051;53.024;8.630;2022-12-20T17:34:03;10.20;99.90
17938;DHT22;16051;53.024;8.630;2022-12-20T17:38:06;10.30;99.90
17938;DHT22;16051;53.024;8.630;2022-12-20T17:42:11;10.30;99.90
17938;DHT22;16051;53.024;8.630;2022-12-20T17:46:14;10.30;99.90
17938;DHT22;16051;53.024;8.630;2022-12-20T17:50:18;10.20;99.90
17938;DHT22;16051;53.024;8.630;2022-12-20T17:54:22;10.30;99.90
17938;DHT22;16051;53.024;8.630;2022-12-20T17:58:26;10.20;99.90
17938;DHT22;16051;53.024;8.630;2022-12-20T18:02:28;10.20;99.90
17938;DHT22;16051;53.024;8.630;2022-12-20T18:06:33;10.20;99.90
17938;DHT22;16051;53.024;8.630;2022-12-20T18:10:37;10.20;99.90
17938;DHT22;16051;53.024;8.630;2022-12-20T18:14:39;10.30;99.90
17938;DHT22;16051;53.024;8.630;2022-12-20T18:18:41;10.30;99.90
17938;DHT22;16051;53.024;8.630;2022-12-20T18:22:45;10.30;99.90
17938;DHT22;16051;53.024;8.630;2022-12-20T18:26:55;10.20;99.90
17938;DHT22;16051;53.024;8.630;2022-12-20T18:30:58;10.30;99.90
17938;DHT22;16051;53.024;8.630;2022-12-20T18:35:01;10.30;99.90
17938;DHT22;16051;53.024;8.630;2022-12-20T18:39:17;10.30;99.90
17938;DHT22;16051;53.024;8.630;2022-12-20T18:43:19;10.30;99.90
17938;DHT22;16051;53.024;8.630;2022-12-20T18:47:21;10.30;99.90
17938;DHT22;16051;53.024;8.630;2022-12-20T18:51:25;10.30;99.90
17938;DHT22;16051;53.024;8.630;2022-12-20T18:55:30;10.30;99.90
17938;DHT22;16051;53.024;8.630;2022-12-20T18:59:33;10.30;99.90
17938;DHT22;16051;53.024;8.630;2022-12-20T19:03:35;10.30;99.90
17938;DHT22;16051;53.024;8.630;2022-12-20T19:07:38;10.30;99.90
17938;DHT22;16051;53.024;8.630;2022-12-20T19:11:41;10.30;99.90
17938;DHT22;16051;53.024;8.630;2022-12-20T19:15:44;10.30;99.90
17938;DHT22;16051;53.024;8.630;2022-12-20T19:19:46;10.30;99.90
17938;DHT22;16051;53.024;8.630;2022-12-20T19:23:51;10.30;99.90
17938;DHT22;16051;53.024;8.630;2022-12-20T19:27:55;10.30;99.90
17938;DHT22;16051;53.024;8.630;2022-12-20T19:31:57;10.30;99.90
17938;DHT22;16051;53.024;8.630;2022-12-20T19:36:07;10.30;99.90
17938;DHT22;16051;53.024;8.630;2022-12-20T19:40:10;10.30;99.90
17938;DHT22;16051;53.024;8.630;2022-12-20T19:44:14;10.30;99.90
17938;DHT22;16051;53.024;8.630;2022-12-20T19:48:16;10.30;99.90
17938;DHT22;16051;53.024;8.630;2022-12-20T19:52:18;10.30;99.90
17938;DHT22;16051;53.024;8.630;2022-12-20T19:56:22;10.30;99.90
17938;DHT22;16051;53.024;8.630;2022-12-20T20:00:27;10.30;99.90
17938;DHT22;16051;53.024;8.630;2022-12-20T20:04:29;10.30;99.90
17938;DHT22;16051;53.024;8.630;2022-12-20T20:08:32;10.30;99.90
17938;DHT22;16051;53.024;8.630;2022-12-20T20:12:35;10.30;99.90
17938;DHT22;16051;53.024;8.630;2022-12-20T20:16:40;10.30;99.90
17938;DHT22;16051;53.024;8.630;2022-12-20T20:20:42;10.30;99.90
17938;DHT22;16051;53.024;8.630;2022-12-20T20:24:45;10.30;99.90
17938;DHT22;16051;53.024;8.630;2022-12-20T20:28:47;10.20;99.90
17938;DHT22;16051;53.024;8.630;2022-12-20T20:32:56;10.30;99.90
17938;DHT22;16051;53.024;8.630;2022-12-20T20:36:58;10.30;99.90
17938;DHT22;16051;53.024;8.630;2022-12-20T20:41:00;10.30;99.90
17938;DHT22;16051;53.024;8.630;2022-12-20T20:45:03;10.20;99.90
17938;DHT22;16051;53.024;8.630;2022-12-20T20:49:07;10.20;99.90
17938;DHT22;16051;53.024;8.630;2022-12-20T20:53:12;10.20;99.90
17938;DHT22;16051;53.024;8.630;2022-12-20T20:57:14;10.20;99.90
17938;DHT22;16051;53.024;8.630;2022-12-20T21:01:16;10.40;99.90
17938;DHT22;16051;53.024;8.630;2022-12-20T21:05:20;10.60;99.90
17938;DHT22;16051;53.024;8.630;2022-12-20T21:09:22;10.50;99.90
17938;DHT22;16051;53.024;8.630;2022-12-20T21:13:24;10.40;99.90
17938;DHT22;16051;53.024;8.630;2022-12-20T21:17:27;10.30;99.90
17938;DHT22;16051;53.024;8.630;2022-12-20T21:21:37;10.30;99.90
17938;DHT22;16051;53.024;8.630;2022-12-20T21:30:25;10.20;99.90
17938;DHT22;16051;53.024;8.630;2022-12-20T21:34:27;10.20;99.90
17938;DHT22;16051;53.024;8.630;2022-12-20T21:38:30;10.20;99.90
17938;DHT22;16051;53.024;8.630;2022-12-20T21:42:33;10.20;99.90
17938;DHT22;16051;53.024;8.630;2022-12-20T21:46:36;10.20;99.90
17938;DHT22;16051;53.024;8.630;2022-12-20T21:50:38;10.20;99.90
17938;DHT22;16051;53.024;8.630;2022-12-20T21:54:41;10.10;99.90
17938;DHT22;16051;53.024;8.630;2022-12-20T21:58:44;10.10;99.90
17938;DHT22;16051;53.024;8.630;2022-12-20T22:02:46;10.10;99.90
17938;DHT22;16051;53.024;8.630;2022-12-20T22:06:48;10.10;99.90
17938;DHT22;16051;53.024;8.630;2022-12-20T22:10:58;10.10;99.90
17938;DHT22;16051;53.024;8.630;2022-12-20T22:15:17;10.10;99.90
17938;DHT22;16051;53.024;8.630;2022-12-20T22:19:19;10.10;99.90
17938;DHT22;16051;53.024;8.630;2022-12-20T22:23:22;10.10;99.90
17938;DHT22;16051;53.024;8.630;2022-12-20T22:27:25;10.10;99.90
17938;DHT22;16051;53.024;8.630;2022-12-20T22:31:27;10.10;99.90
17938;DHT22;16051;53.024;8.630;2022-12-20T22:35:30;10.00;99.90
17938;DHT22;16051;53.024;8.630;2022-12-20T22:39:32;10.10;99.90
17938;DHT22;16051;53.024;8.630;2022-12-20T22:43:36;10.00;99.90
17938;DHT22;16051;53.024;8.630;2022-12-20T22:47:39;10.00;99.90
17938;DHT22;16051;53.024;8.630;2022-12-20T22:51:41;10.00;99.90
17938;DHT22;16051;53.024;8.630;2022-12-20T22:55:43;10.00;99.90
17938;DHT22;16051;53.024;8.630;2022-12-20T22:59:50;10.00;99.90
17938;DHT22;16051;53.024;8.630;2022-12-20T23:03:52;10.00;99.90
17938;DHT22;16051;53.024;8.630;2022-12-20T23:08:00;10.00;99.90
17938;DHT22;16051;53.024;8.630;2022-12-20T23:12:02;10.00;99.90
17938;DHT22;16051;53.024;8.630;2022-12-20T23:16:23;9.90;99.90
17938;DHT22;16051;53.024;8.630;2022-12-20T23:20:25;9.90;99.90
17938;DHT22;16051;53.024;8.630;2022-12-20T23:24:45;10.00;99.90
17938;DHT22;16051;53.024;8.630;2022-12-20T23:28:48;9.90;99.90
17938;DHT22;16051;53.024;8.630;2022-12-20T23:32:51;10.00;99.90
17938;DHT22;16051;53.024;8.630;2022-12-20T23:36:55;10.00;99.90
17938;DHT22;16051;53.024;8.630;2022-12-20T23:40:57;10.00;99.90
17938;DHT22;16051;53.024;8.630;2022-12-20T23:44:59;9.90;99.90
17938;DHT22;16051;53.024;8.630;2022-12-20T23:49:03;10.00;99.90
17938;DHT22;16051;53.024;8.630;2022-12-20T23:53:05;10.00;99.90
17938;DHT22;16051;53.024;8.630;2022-12-20T23:57:17;10.00;99.90
